createdAt,value
2016-02-09T00:00:35.036Z,0
2016-02-09T00:01:35.038Z,0
2016-02-09T00:02:35.042Z,0
2016-02-09T00:03:35.045Z,0
2016-02-09T00:04:35.015Z,0
2016-02-09T00:05:35.019Z,0
2016-02-09T00:06:35.021Z,0
2016-02-09T00:07:35.009Z,0
2016-02-09T00:08:35.027Z,0
2016-02-09T00:09:34.843Z,0
2016-02-09T00:10:35.001Z,0
2016-02-09T00:11:35.004Z,0
2016-02-09T00:12:34.991Z,0
2016-02-09T00:13:34.994Z,0
2016-02-09T00:14:34.995Z,0
2016-02-09T00:15:35.031Z,0
2016-02-09T00:16:35.001Z,0
2016-02-09T00:17:34.989Z,0
2016-02-09T00:18:34.992Z,0
2016-02-09T00:19:34.979Z,0
2016-02-09T00:20:35.029Z,0
2016-02-09T00:21:36.594Z,0
2016-02-09T00:22:34.956Z,0
2016-02-09T00:23:34.967Z,0
2016-02-09T00:24:34.985Z,0
2016-02-09T00:25:34.957Z,0
2016-02-09T00:26:34.959Z,0
2016-02-09T00:27:34.949Z,0
2016-02-09T00:28:34.968Z,0
2016-02-09T00:29:34.954Z,0
2016-02-09T00:30:34.942Z,0
2016-02-09T00:31:34.960Z,0
2016-02-09T00:32:34.931Z,0
2016-02-09T00:33:34.950Z,0
2016-02-09T00:34:34.936Z,0
2016-02-09T00:35:34.956Z,0
2016-02-09T00:36:34.926Z,0
2016-02-09T00:37:34.929Z,0
2016-02-09T00:38:34.947Z,0
2016-02-09T00:39:34.919Z,0
2016-02-09T00:40:34.906Z,0
2016-02-09T00:41:34.927Z,0
2016-02-09T00:42:34.930Z,0
2016-02-09T00:43:34.917Z,0
2016-02-09T00:44:34.919Z,0
2016-02-09T00:45:34.892Z,0
2016-02-09T00:46:34.895Z,0
2016-02-09T00:47:34.912Z,0
2016-02-09T00:48:34.885Z,0
2016-02-09T00:49:34.888Z,0
2016-02-09T00:50:34.891Z,0
2016-02-09T00:51:34.893Z,0
2016-02-09T00:52:34.872Z,0
2016-02-09T00:53:34.874Z,0
2016-02-09T00:54:34.722Z,0
2016-02-09T00:55:34.864Z,0
2016-02-09T00:56:34.883Z,0
2016-02-09T00:57:34.886Z,0
2016-02-09T00:58:34.857Z,0
2016-02-09T00:59:34.860Z,0
2016-02-09T01:00:34.877Z,0
2016-02-09T01:01:34.865Z,0
2016-02-09T01:02:34.851Z,0
2016-02-09T01:03:34.871Z,0
2016-02-09T01:04:34.843Z,0
2016-02-09T01:05:34.845Z,0
2016-02-09T01:06:34.863Z,0
2016-02-09T01:07:34.836Z,0
2016-02-09T01:08:34.838Z,0
2016-02-09T01:09:34.841Z,0
2016-02-09T01:10:34.844Z,0
2016-02-09T01:11:34.830Z,0
2016-02-09T01:12:34.817Z,0
2016-02-09T01:13:34.835Z,0
2016-02-09T01:14:34.808Z,0
2016-02-09T01:15:34.825Z,0
2016-02-09T01:16:34.844Z,0
2016-02-09T01:17:34.817Z,0
2016-02-09T01:18:34.803Z,0
2016-02-09T01:19:34.822Z,0
2016-02-09T01:20:34.792Z,0
2016-02-09T01:21:34.795Z,0
2016-02-09T01:22:34.798Z,0
2016-02-09T01:23:34.785Z,0
2016-02-09T01:24:34.788Z,0
2016-02-09T01:25:34.775Z,0
2016-02-09T01:26:34.777Z,0
2016-02-09T01:27:34.797Z,0
2016-02-09T01:28:34.768Z,0
2016-02-09T01:29:34.770Z,0
2016-02-09T01:30:34.775Z,0
2016-02-09T01:31:34.762Z,0
2016-02-09T01:32:34.749Z,0
2016-02-09T01:33:34.767Z,0
2016-02-09T01:34:34.754Z,0
2016-02-09T01:35:34.757Z,0
2016-02-09T01:36:34.792Z,0
2016-02-09T01:37:34.747Z,0
2016-02-09T01:38:34.734Z,0
2016-02-09T01:39:34.754Z,0
2016-02-09T01:40:34.599Z,0
2016-02-09T01:41:34.743Z,0
2016-02-09T01:42:34.745Z,0
2016-02-09T01:43:34.718Z,0
2016-02-09T01:44:34.721Z,0
2016-02-09T01:45:34.739Z,0
2016-02-09T01:46:34.758Z,0
2016-02-09T01:47:34.714Z,0
2016-02-09T01:48:34.717Z,0
2016-02-09T01:49:34.720Z,0
2016-02-09T01:50:34.707Z,0
2016-02-09T01:51:34.709Z,0
2016-02-09T01:52:34.714Z,0
2016-02-09T01:53:34.703Z,0
2016-02-09T01:54:34.689Z,0
2016-02-09T01:55:34.682Z,0
2016-02-09T01:56:34.716Z,0
2016-02-09T01:57:34.686Z,0
2016-02-09T01:58:34.690Z,0
2016-02-09T01:59:34.708Z,0
2016-02-09T02:00:34.666Z,0
2016-02-09T02:01:34.669Z,0
2016-02-09T02:02:34.702Z,0
2016-02-09T02:03:34.658Z,0
2016-02-09T02:04:34.677Z,0
2016-02-09T02:05:34.680Z,0
2016-02-09T02:06:34.682Z,0
2016-02-09T02:07:34.654Z,0
2016-02-09T02:08:34.657Z,0
2016-02-09T02:09:34.659Z,0
2016-02-09T02:10:34.646Z,0
2016-02-09T02:11:34.649Z,0
2016-02-09T02:12:34.667Z,0
2016-02-09T02:13:34.642Z,0
2016-02-09T02:14:34.643Z,0
2016-02-09T02:15:34.662Z,0
2016-02-09T02:16:34.633Z,0
2016-02-09T02:17:34.620Z,0
2016-02-09T02:18:34.638Z,0
2016-02-09T02:19:34.614Z,0
2016-02-09T02:20:34.617Z,0
2016-02-09T02:21:34.620Z,0
2016-02-09T02:22:34.607Z,0
2016-02-09T02:23:34.610Z,0
2016-02-09T02:24:34.624Z,0
2016-02-09T02:25:34.611Z,0
2016-02-09T02:26:34.598Z,0
2016-02-09T02:27:34.635Z,0
2016-02-09T02:28:34.590Z,0
2016-02-09T02:29:34.608Z,0
2016-02-09T02:30:34.596Z,0
2016-02-09T02:31:34.583Z,0
2016-02-09T02:32:34.586Z,0
2016-02-09T02:33:34.605Z,0
2016-02-09T02:34:34.576Z,0
2016-02-09T02:35:34.562Z,0
2016-02-09T02:36:34.581Z,0
2016-02-09T02:37:34.568Z,0
2016-02-09T02:38:34.554Z,0
2016-02-09T02:39:34.557Z,0
2016-02-09T02:40:34.576Z,0
2016-02-09T02:41:34.564Z,0
2016-02-09T02:42:34.583Z,0
2016-02-09T02:43:34.555Z,0
2016-02-09T02:44:34.557Z,0
2016-02-09T02:45:34.560Z,0
2016-02-09T02:46:34.531Z,0
2016-02-09T02:47:34.534Z,0
2016-02-09T02:48:34.552Z,0
2016-02-09T02:49:34.385Z,0
2016-02-09T02:50:34.529Z,0
2016-02-09T02:51:34.515Z,0
2016-02-09T02:52:34.536Z,0
2016-02-09T02:53:34.523Z,0
2016-02-09T02:54:34.509Z,0
2016-02-09T02:55:34.513Z,0
2016-02-09T02:56:34.531Z,0
2016-02-09T02:57:34.518Z,0
2016-02-09T02:58:34.505Z,0
2016-02-09T02:59:34.508Z,0
2016-02-09T03:00:34.495Z,0
2016-02-09T03:01:34.498Z,0
2016-02-09T03:02:34.500Z,0
2016-02-09T03:03:34.489Z,0
2016-02-09T03:04:34.477Z,0
2016-02-09T03:05:34.480Z,0
2016-02-09T03:06:34.482Z,0
2016-02-09T03:07:34.485Z,0
2016-02-09T03:08:34.487Z,0
2016-02-09T03:09:34.474Z,0
2016-02-09T03:10:34.462Z,0
2016-02-09T03:11:34.465Z,0
2016-02-09T03:12:34.468Z,0
2016-02-09T03:13:34.455Z,0
2016-02-09T03:14:34.458Z,0
2016-02-09T03:15:34.476Z,0
2016-02-09T03:16:34.464Z,0
2016-02-09T03:17:34.451Z,0
2016-02-09T03:18:34.470Z,0
2016-02-09T03:19:34.441Z,0
2016-02-09T03:20:34.429Z,0
2016-02-09T03:21:34.448Z,0
2016-02-09T03:22:34.421Z,0
2016-02-09T03:23:34.424Z,0
2016-02-09T03:24:34.427Z,0
2016-02-09T03:25:34.415Z,0
2016-02-09T03:26:34.418Z,0
2016-02-09T03:27:34.436Z,0
2016-02-09T03:28:34.424Z,0
2016-02-09T03:29:34.410Z,0
2016-02-09T03:30:34.413Z,0
2016-02-09T03:31:34.446Z,0
2016-02-09T03:32:34.402Z,0
2016-02-09T03:33:34.405Z,0
2016-02-09T03:34:34.408Z,0
2016-02-09T03:35:34.379Z,0
2016-02-09T03:36:34.382Z,0
2016-02-09T03:37:34.401Z,0
2016-02-09T03:38:34.389Z,0
2016-02-09T03:39:34.392Z,0
2016-02-09T03:40:34.426Z,0
2016-02-09T03:41:34.381Z,0
2016-02-09T03:42:34.384Z,0
2016-02-09T03:43:34.356Z,0
2016-02-09T03:44:34.390Z,0
2016-02-09T03:45:34.362Z,0
2016-02-09T03:46:34.368Z,0
2016-02-09T03:47:34.356Z,0
2016-02-09T03:48:34.421Z,0
2016-02-09T03:49:34.345Z,0
2016-02-09T03:50:34.335Z,0
2016-02-09T03:51:34.369Z,0
2016-02-09T03:52:34.341Z,0
2016-02-09T03:53:34.328Z,0
2016-02-09T03:54:34.346Z,0
2016-02-09T03:55:34.333Z,0
2016-02-09T03:56:34.336Z,0
2016-02-09T03:57:34.339Z,0
2016-02-09T03:58:34.325Z,0
2016-02-09T03:59:34.312Z,0
2016-02-09T04:00:34.320Z,0
2016-02-09T04:01:34.307Z,0
2016-02-09T04:02:34.310Z,0
2016-02-09T04:03:34.327Z,0
2016-02-09T04:04:34.315Z,0
2016-02-09T04:05:34.301Z,0
2016-02-09T04:06:34.304Z,0
2016-02-09T04:07:34.291Z,0
2016-02-09T04:08:34.296Z,0
2016-02-09T04:09:34.299Z,0
2016-02-09T04:10:34.286Z,0
2016-02-09T04:11:34.289Z,0
2016-02-09T04:12:34.291Z,0
2016-02-09T04:13:34.294Z,0
2016-02-09T04:14:34.285Z,0
2016-02-09T04:15:34.271Z,0
2016-02-09T04:16:34.306Z,0
2016-02-09T04:17:34.262Z,0
2016-02-09T04:18:34.249Z,0
2016-02-09T04:19:34.282Z,0
2016-02-09T04:20:34.251Z,0
2016-02-09T04:21:34.100Z,0
2016-02-09T04:22:34.274Z,0
2016-02-09T04:23:34.261Z,0
2016-02-09T04:24:34.247Z,0
2016-02-09T04:25:34.250Z,0
2016-02-09T04:26:34.269Z,0
2016-02-09T04:27:34.226Z,0
2016-02-09T04:28:34.229Z,0
2016-02-09T04:29:34.232Z,0
2016-02-09T04:30:34.220Z,0
2016-02-09T04:31:34.222Z,0
2016-02-09T04:32:34.240Z,0
2016-02-09T04:33:34.228Z,0
2016-02-09T04:34:34.215Z,0
2016-02-09T04:35:34.202Z,0
2016-02-09T04:36:34.221Z,0
2016-02-09T04:37:34.193Z,0
2016-02-09T04:38:34.196Z,0
2016-02-09T04:39:34.213Z,0
2016-02-09T04:40:34.185Z,0
2016-02-09T04:41:34.188Z,0
2016-02-09T04:42:34.190Z,0
2016-02-09T04:43:34.193Z,0
2016-02-09T04:44:34.196Z,0
2016-02-09T04:45:34.183Z,0
2016-02-09T04:46:34.171Z,0
2016-02-09T04:47:34.174Z,0
2016-02-09T04:48:34.191Z,0
2016-02-09T04:49:34.164Z,0
2016-02-09T04:50:34.183Z,0
2016-02-09T04:51:34.188Z,0
2016-02-09T04:52:34.159Z,0
2016-02-09T04:53:34.162Z,0
2016-02-09T04:54:34.196Z,0
2016-02-09T04:55:34.136Z,0
2016-02-09T04:56:34.155Z,0
2016-02-09T04:57:34.174Z,0
2016-02-09T04:58:34.129Z,0
2016-02-09T04:59:34.132Z,0
2016-02-09T05:00:34.135Z,0
2016-02-09T05:01:34.137Z,0
2016-02-09T05:02:34.125Z,0
2016-02-09T05:03:34.128Z,0
2016-02-09T05:04:34.116Z,0
2016-02-09T05:05:34.103Z,0
2016-02-09T05:06:34.121Z,0
2016-02-09T05:07:34.123Z,0
2016-02-09T05:08:34.111Z,0
2016-02-09T05:09:34.114Z,0
2016-02-09T05:10:34.117Z,0
2016-02-09T05:11:34.088Z,0
2016-02-09T05:12:34.138Z,0
2016-02-09T05:13:34.109Z,0
2016-02-09T05:14:34.097Z,0
2016-02-09T05:15:34.084Z,0
2016-02-09T05:16:34.117Z,0
2016-02-09T05:17:34.057Z,0
2016-02-09T05:18:34.076Z,0
2016-02-09T05:19:34.079Z,0
2016-02-09T05:20:34.097Z,0
2016-02-09T05:21:34.068Z,0
2016-02-09T05:22:34.062Z,0
2016-02-09T05:23:34.081Z,0
2016-02-09T05:24:34.052Z,0
2016-02-09T05:25:34.055Z,0
2016-02-09T05:26:34.057Z,0
2016-02-09T05:27:34.044Z,0
2016-02-09T05:28:34.063Z,0
2016-02-09T05:29:34.082Z,0
2016-02-09T05:30:34.049Z,0
2016-02-09T05:31:34.037Z,0
2016-02-09T05:32:34.023Z,0
2016-02-09T05:33:34.014Z,0
2016-02-09T05:34:34.031Z,0
2016-02-09T05:35:34.034Z,0
2016-02-09T05:36:34.021Z,0
2016-02-09T05:37:34.008Z,0
2016-02-09T05:38:34.011Z,0
2016-02-09T05:39:34.029Z,0
2016-02-09T05:40:34.016Z,0
2016-02-09T05:41:34.003Z,0
2016-02-09T05:42:34.022Z,0
2016-02-09T05:43:33.993Z,0
2016-02-09T05:44:33.996Z,0
2016-02-09T05:45:34.013Z,0
2016-02-09T05:46:33.985Z,0
2016-02-09T05:47:33.991Z,0
2016-02-09T05:48:33.993Z,0
2016-02-09T05:49:33.979Z,0
2016-02-09T05:50:33.967Z,0
2016-02-09T05:51:33.969Z,0
2016-02-09T05:52:34.004Z,0
2016-02-09T05:53:33.977Z,0
2016-02-09T05:54:33.964Z,0
2016-02-09T05:55:33.982Z,0
2016-02-09T05:56:33.953Z,0
2016-02-09T05:57:33.956Z,0
2016-02-09T05:58:33.944Z,0
2016-02-09T05:59:33.961Z,0
2016-02-09T06:00:33.950Z,0
2016-02-09T06:01:33.953Z,0
2016-02-09T06:02:33.955Z,0
2016-02-09T06:03:33.958Z,0
2016-02-09T06:04:33.961Z,0
2016-02-09T06:05:33.933Z,0
2016-02-09T06:06:33.935Z,0
2016-02-09T06:07:33.958Z,0
2016-02-09T06:08:33.914Z,0
2016-02-09T06:09:33.917Z,0
2016-02-09T06:10:33.936Z,0
2016-02-09T06:11:33.908Z,0
2016-02-09T06:12:33.894Z,0
2016-02-09T06:13:33.928Z,0
2016-02-09T06:14:33.901Z,0
2016-02-09T06:15:33.904Z,0
2016-02-09T06:16:33.907Z,0
2016-02-09T06:17:33.930Z,0
2016-02-09T06:18:33.886Z,4
2016-02-09T06:19:33.890Z,0
2016-02-09T06:20:33.892Z,4
2016-02-09T06:21:33.871Z,4
2016-02-09T06:22:33.890Z,4
2016-02-09T06:23:33.893Z,8
2016-02-09T06:24:33.864Z,8
2016-02-09T06:25:33.866Z,8
2016-02-09T06:26:34.437Z,16
2016-02-09T06:27:33.892Z,20
2016-02-09T06:28:33.879Z,24
2016-02-09T06:29:33.867Z,24
2016-02-09T06:30:33.887Z,24
2016-02-09T06:31:33.858Z,28
2016-02-09T06:32:33.845Z,32
2016-02-09T06:33:34.083Z,36
2016-02-09T06:34:33.851Z,44
2016-02-09T06:35:33.838Z,48
2016-02-09T06:36:33.857Z,52
2016-02-09T06:37:33.845Z,52
2016-02-09T06:38:33.831Z,52
2016-02-09T06:39:33.833Z,52
2016-02-09T06:40:33.821Z,52
2016-02-09T06:41:33.808Z,48
2016-02-09T06:42:33.842Z,52
2016-02-09T06:43:33.814Z,56
2016-02-09T06:44:33.832Z,60
2016-02-09T06:45:33.835Z,68
2016-02-09T06:46:33.823Z,76
2016-02-09T06:47:33.809Z,88
2016-02-09T06:48:33.828Z,88
2016-02-09T06:49:33.646Z,96
2016-02-09T06:50:33.789Z,108
2016-02-09T06:51:33.808Z,120
2016-02-09T06:52:33.644Z,120
2016-02-09T06:53:33.786Z,124
2016-02-09T06:54:33.789Z,128
2016-02-09T06:55:33.808Z,140
2016-02-09T06:56:33.795Z,148
2016-02-09T06:57:33.783Z,156
2016-02-09T06:58:33.787Z,164
2016-02-09T06:59:33.774Z,180
2016-02-09T07:00:33.778Z,204
2016-02-09T07:01:33.764Z,224
2016-02-09T07:02:33.767Z,236
2016-02-09T07:03:33.754Z,232
2016-02-09T07:04:33.855Z,240
2016-02-09T07:05:33.781Z,248
2016-02-09T07:06:33.752Z,260
2016-02-09T07:07:33.740Z,268
2016-02-09T07:08:33.758Z,276
2016-02-09T07:09:33.745Z,280
2016-02-09T07:10:33.747Z,276
2016-02-09T07:11:33.738Z,272
2016-02-09T07:12:33.740Z,260
2016-02-09T07:13:33.729Z,232
2016-02-09T07:14:33.746Z,212
2016-02-09T07:15:33.717Z,212
2016-02-09T07:16:33.721Z,216
2016-02-09T07:17:33.739Z,224
2016-02-09T07:18:33.726Z,224
2016-02-09T07:19:33.714Z,220
2016-02-09T07:20:33.716Z,224
2016-02-09T07:21:33.719Z,212
2016-02-09T07:22:33.722Z,220
2016-02-09T07:23:33.692Z,232
2016-02-09T07:24:33.700Z,244
2016-02-09T07:25:33.703Z,260
2016-02-09T07:26:33.721Z,272
2016-02-09T07:27:33.708Z,284
2016-02-09T07:28:33.680Z,320
2016-02-09T07:29:33.541Z,324
2016-02-09T07:30:33.685Z,348
2016-02-09T07:31:33.688Z,372
2016-02-09T07:32:33.690Z,352
2016-02-09T07:33:33.694Z,332
2016-02-09T07:34:33.666Z,316
2016-02-09T07:35:33.669Z,304
2016-02-09T07:36:33.671Z,292
2016-02-09T07:37:33.658Z,316
2016-02-09T07:38:33.661Z,344
2016-02-09T07:39:33.664Z,368
2016-02-09T07:40:33.683Z,392
2016-02-09T07:41:33.639Z,408
2016-02-09T07:42:33.642Z,400
2016-02-09T07:43:33.707Z,388
2016-02-09T07:44:33.632Z,384
2016-02-09T07:45:33.650Z,388
2016-02-09T07:46:33.653Z,440
2016-02-09T07:47:33.627Z,544
2016-02-09T07:48:33.645Z,636
2016-02-09T07:49:33.649Z,668
2016-02-09T07:50:33.620Z,644
2016-02-09T07:51:33.622Z,600
2016-02-09T07:52:33.640Z,564
2016-02-09T07:53:33.599Z,540
2016-02-09T07:54:33.601Z,528
2016-02-09T07:55:33.605Z,520
2016-02-09T07:56:33.608Z,544
2016-02-09T07:57:33.595Z,580
2016-02-09T07:58:33.614Z,596
2016-02-09T07:59:33.601Z,596
2016-02-09T08:00:33.587Z,592
2016-02-09T08:01:33.593Z,576
2016-02-09T08:02:33.580Z,568
2016-02-09T08:03:33.584Z,592
2016-02-09T08:04:33.586Z,592
2016-02-09T08:05:33.589Z,600
2016-02-09T08:06:33.576Z,588
2016-02-09T08:07:33.578Z,596
2016-02-09T08:08:33.597Z,628
2016-02-09T08:09:33.586Z,680
2016-02-09T08:10:33.557Z,732
2016-02-09T08:11:33.544Z,780
2016-02-09T08:12:33.578Z,824
2016-02-09T08:13:33.550Z,892
2016-02-09T08:14:33.540Z,964
2016-02-09T08:15:33.575Z,1016
2016-02-09T08:16:33.545Z,1064
2016-02-09T08:17:33.538Z,1096
2016-02-09T08:18:33.540Z,1092
2016-02-09T08:19:33.557Z,1028
2016-02-09T08:20:33.530Z,880
2016-02-09T08:21:33.519Z,760
2016-02-09T08:22:33.553Z,688
2016-02-09T08:23:33.527Z,640
2016-02-09T08:24:33.529Z,620
2016-02-09T08:25:33.516Z,560
2016-02-09T08:26:33.520Z,488
2016-02-09T08:27:33.506Z,476
2016-02-09T08:28:33.525Z,476
2016-02-09T08:29:33.512Z,488
2016-02-09T08:30:33.514Z,500
2016-02-09T08:31:33.568Z,544
2016-02-09T08:32:33.539Z,628
2016-02-09T08:33:33.496Z,748
2016-02-09T08:34:33.513Z,808
2016-02-09T08:35:33.515Z,824
2016-02-09T08:36:33.488Z,780
2016-02-09T08:37:33.474Z,652
2016-02-09T08:38:33.476Z,536
2016-02-09T08:39:33.480Z,468
2016-02-09T08:40:33.480Z,444
2016-02-09T08:41:33.455Z,476
2016-02-09T08:42:33.445Z,568
2016-02-09T08:43:33.481Z,688
2016-02-09T08:44:33.409Z,788
2016-02-09T08:45:33.402Z,832
2016-02-09T08:46:33.416Z,780
2016-02-09T08:47:33.383Z,704
2016-02-09T08:48:33.365Z,656
2016-02-09T08:49:33.379Z,596
2016-02-09T08:50:33.411Z,568
2016-02-09T08:51:33.366Z,600
2016-02-09T08:52:33.350Z,656
2016-02-09T08:53:33.353Z,716
2016-02-09T08:54:33.354Z,720
2016-02-09T08:55:33.356Z,740
2016-02-09T08:56:33.342Z,748
2016-02-09T08:57:33.360Z,680
2016-02-09T08:58:33.336Z,580
2016-02-09T08:59:33.337Z,524
2016-02-09T09:00:33.355Z,516
2016-02-09T09:01:33.342Z,584
2016-02-09T09:02:33.312Z,728
2016-02-09T09:03:33.331Z,836
2016-02-09T09:04:33.317Z,908
2016-02-09T09:05:33.319Z,992
2016-02-09T09:06:33.322Z,1048
2016-02-09T09:07:33.325Z,1068
2016-02-09T09:08:33.297Z,1004
2016-02-09T09:09:33.300Z,796
2016-02-09T09:10:33.319Z,588
2016-02-09T09:11:33.291Z,560
2016-02-09T09:12:33.293Z,692
2016-02-09T09:13:33.311Z,888
2016-02-09T09:14:33.331Z,1036
2016-02-09T09:15:33.272Z,1004
2016-02-09T09:16:33.290Z,916
2016-02-09T09:17:33.277Z,792
2016-02-09T09:18:33.271Z,716
2016-02-09T09:19:33.288Z,700
2016-02-09T09:20:33.310Z,704
2016-02-09T09:21:33.296Z,684
2016-02-09T09:22:33.269Z,680
2016-02-09T09:23:33.271Z,688
2016-02-09T09:24:33.273Z,700
2016-02-09T09:25:33.277Z,712
2016-02-09T09:26:33.123Z,708
2016-02-09T09:27:33.282Z,712
2016-02-09T09:28:33.239Z,724
2016-02-09T09:29:33.242Z,748
2016-02-09T09:30:33.245Z,772
2016-02-09T09:31:33.247Z,760
2016-02-09T09:32:33.250Z,748
2016-02-09T09:33:33.253Z,732
2016-02-09T09:34:33.240Z,720
2016-02-09T09:35:33.244Z,708
2016-02-09T09:36:33.246Z,704
2016-02-09T09:37:33.233Z,724
2016-02-09T09:38:33.221Z,780
2016-02-09T09:39:33.223Z,836
2016-02-09T09:40:33.272Z,884
2016-02-09T09:41:33.212Z,928
2016-02-09T09:42:33.216Z,936
2016-02-09T09:43:33.235Z,916
2016-02-09T09:44:33.221Z,932
2016-02-09T09:45:33.209Z,1004
2016-02-09T09:46:33.196Z,1080
2016-02-09T09:47:33.229Z,1100
2016-02-09T09:48:33.196Z,1060
2016-02-09T09:49:33.214Z,1076
2016-02-09T09:50:33.216Z,1136
2016-02-09T09:51:33.188Z,1120
2016-02-09T09:52:33.175Z,1100
2016-02-09T09:53:33.194Z,1108
2016-02-09T09:54:33.180Z,1128
2016-02-09T09:55:33.183Z,1180
2016-02-09T09:56:33.171Z,1156
2016-02-09T09:57:33.189Z,1216
2016-02-09T09:58:33.162Z,1192
2016-02-09T09:59:33.164Z,1200
2016-02-09T10:00:33.181Z,1164
2016-02-09T10:01:33.169Z,1168
2016-02-09T10:02:33.187Z,1148
2016-02-09T10:03:33.174Z,1168
2016-02-09T10:04:33.020Z,1188
2016-02-09T10:05:33.164Z,1220
2016-02-09T10:06:33.167Z,1220
2016-02-09T10:07:33.169Z,1188
2016-02-09T10:08:33.141Z,1124
2016-02-09T10:09:33.144Z,1036
2016-02-09T10:10:33.161Z,976
2016-02-09T10:11:33.149Z,924
2016-02-09T10:12:33.136Z,956
2016-02-09T10:13:33.123Z,1100
2016-02-09T10:14:33.141Z,1216
2016-02-09T10:15:33.128Z,1252
2016-02-09T10:16:33.132Z,1260
2016-02-09T10:17:33.134Z,1376
2016-02-09T10:18:33.121Z,1328
2016-02-09T10:19:33.112Z,1368
2016-02-09T10:20:33.115Z,1304
2016-02-09T10:21:33.117Z,1292
2016-02-09T10:22:33.104Z,1260
2016-02-09T10:23:33.122Z,1232
2016-02-09T10:24:33.110Z,1228
2016-02-09T10:25:33.128Z,1296
2016-02-09T10:26:33.099Z,1368
2016-02-09T10:27:33.086Z,1376
2016-02-09T10:28:33.089Z,1344
2016-02-09T10:29:33.111Z,1396
2016-02-09T10:30:33.083Z,1480
2016-02-09T10:31:33.086Z,1568
2016-02-09T10:32:33.104Z,1584
2016-02-09T10:33:33.091Z,1564
2016-02-09T10:34:33.078Z,1532
2016-02-09T10:35:33.081Z,1496
2016-02-09T10:36:33.083Z,1360
2016-02-09T10:37:33.070Z,1276
2016-02-09T10:38:33.073Z,1340
2016-02-09T10:39:33.061Z,1468
2016-02-09T10:40:33.078Z,1528
2016-02-09T10:41:33.080Z,1540
2016-02-09T10:42:33.069Z,1616
2016-02-09T10:43:33.055Z,1648
2016-02-09T10:44:33.057Z,1596
2016-02-09T10:45:33.063Z,1536
2016-02-09T10:46:33.065Z,1788
2016-02-09T10:47:33.053Z,1880
2016-02-09T10:48:33.040Z,1980
2016-02-09T10:49:33.026Z,2164
2016-02-09T10:50:33.029Z,2356
2016-02-09T10:51:32.871Z,2420
2016-02-09T10:52:33.045Z,2656
2016-02-09T10:53:33.017Z,2636
2016-02-09T10:54:33.035Z,2572
2016-02-09T10:55:33.037Z,2608
2016-02-09T10:56:33.025Z,2708
2016-02-09T10:57:33.012Z,2652
2016-02-09T10:58:33.014Z,2620
2016-02-09T10:59:33.017Z,2676
2016-02-09T11:00:33.004Z,2640
2016-02-09T11:01:33.023Z,2712
2016-02-09T11:02:32.854Z,2372
2016-02-09T11:03:32.998Z,2184
2016-02-09T11:04:32.860Z,2144
2016-02-09T11:05:32.987Z,2144
2016-02-09T11:06:32.990Z,2128
2016-02-09T11:07:33.009Z,2116
2016-02-09T11:08:32.996Z,2020
2016-02-09T11:09:32.999Z,1992
2016-02-09T11:10:32.990Z,1932
2016-02-09T11:11:32.977Z,2084
2016-02-09T11:12:32.980Z,2308
2016-02-09T11:13:32.998Z,2408
2016-02-09T11:14:32.969Z,2592
2016-02-09T11:15:32.973Z,2544
2016-02-09T11:16:32.991Z,2240
2016-02-09T11:17:32.977Z,2432
2016-02-09T11:18:32.969Z,2640
2016-02-09T11:19:32.986Z,2600
2016-02-09T11:20:32.958Z,3064
2016-02-09T11:21:32.963Z,3576
2016-02-09T11:22:32.981Z,3404
2016-02-09T11:23:32.969Z,3160
2016-02-09T11:24:32.955Z,3148
2016-02-09T11:25:32.975Z,2848
2016-02-09T11:26:32.946Z,2608
2016-02-09T11:27:32.949Z,2584
2016-02-09T11:28:32.951Z,2652
2016-02-09T11:29:32.940Z,2728
2016-02-09T11:30:32.942Z,2696
2016-02-09T11:31:32.946Z,2684
2016-02-09T11:32:32.948Z,2816
2016-02-09T11:33:32.935Z,2752
2016-02-09T11:34:32.937Z,2712
2016-02-09T11:35:32.940Z,2760
2016-02-09T11:36:32.928Z,2752
2016-02-09T11:37:32.932Z,3144
2016-02-09T11:38:33.106Z,3144
2016-02-09T11:39:32.938Z,3264
2016-02-09T11:40:32.941Z,3216
2016-02-09T11:41:32.927Z,3204
2016-02-09T11:42:32.946Z,3460
2016-02-09T11:43:32.917Z,3536
2016-02-09T11:44:32.920Z,3324
2016-02-09T11:45:32.938Z,3204
2016-02-09T11:46:32.928Z,3160
2016-02-09T11:47:32.915Z,3068
2016-02-09T11:48:32.933Z,2844
2016-02-09T11:49:32.936Z,2596
2016-02-09T11:50:32.938Z,2320
2016-02-09T11:51:32.900Z,2012
2016-02-09T11:52:32.919Z,1796
2016-02-09T11:53:32.906Z,1580
2016-02-09T11:54:32.912Z,1356
2016-02-09T11:55:32.900Z,1208
2016-02-09T11:56:32.903Z,1060
2016-02-09T11:57:32.905Z,1000
2016-02-09T11:58:32.892Z,964
2016-02-09T11:59:32.911Z,920
2016-02-09T12:00:32.882Z,848
2016-02-09T12:01:32.884Z,788
2016-02-09T12:02:32.906Z,740
2016-02-09T12:03:32.878Z,728
2016-02-09T12:04:32.869Z,832
2016-02-09T12:05:32.904Z,980
2016-02-09T12:06:32.891Z,1080
2016-02-09T12:07:32.863Z,1092
2016-02-09T12:08:32.881Z,1144
2016-02-09T12:09:32.868Z,1240
2016-02-09T12:10:32.859Z,1360
2016-02-09T12:11:32.876Z,1488
2016-02-09T12:12:32.879Z,1452
2016-02-09T12:13:32.867Z,1260
2016-02-09T12:14:32.853Z,1052
2016-02-09T12:15:32.856Z,1040
2016-02-09T12:16:32.859Z,1020
2016-02-09T12:17:32.846Z,1156
2016-02-09T12:18:32.848Z,1320
2016-02-09T12:19:32.851Z,1388
2016-02-09T12:20:32.845Z,1356
2016-02-09T12:21:32.863Z,1292
2016-02-09T12:22:32.850Z,1236
2016-02-09T12:23:33.181Z,1232
2016-02-09T12:24:32.871Z,1380
2016-02-09T12:25:32.826Z,1552
2016-02-09T12:26:32.860Z,1676
2016-02-09T12:27:32.835Z,1784
2016-02-09T12:28:32.837Z,1772
2016-02-09T12:29:32.825Z,1692
2016-02-09T12:30:32.847Z,1716
2016-02-09T12:31:32.818Z,1660
2016-02-09T12:32:32.665Z,1536
2016-02-09T12:33:32.825Z,1492
2016-02-09T12:34:32.811Z,1536
2016-02-09T12:35:32.829Z,1596
2016-02-09T12:36:32.817Z,1680
2016-02-09T12:37:32.819Z,1700
2016-02-09T12:38:32.807Z,1652
2016-02-09T12:39:32.809Z,1600
2016-02-09T12:40:32.812Z,1512
2016-02-09T12:41:32.830Z,1480
2016-02-09T12:42:32.801Z,1416
2016-02-09T12:43:32.804Z,1344
2016-02-09T12:44:32.791Z,1268
2016-02-09T12:45:32.810Z,1188
2016-02-09T12:46:32.797Z,1144
2016-02-09T12:47:32.643Z,1120
2016-02-09T12:48:32.802Z,1040
2016-02-09T12:49:32.790Z,1000
2016-02-09T12:50:32.794Z,956
2016-02-09T12:51:32.797Z,880
2016-02-09T12:52:32.783Z,820
2016-02-09T12:53:32.786Z,776
2016-02-09T12:54:32.790Z,688
2016-02-09T12:55:32.777Z,604
2016-02-09T12:56:32.764Z,528
2016-02-09T12:57:32.736Z,472
2016-02-09T12:58:32.769Z,488
2016-02-09T12:59:32.787Z,484
2016-02-09T13:00:32.759Z,492
2016-02-09T13:01:32.761Z,548
2016-02-09T13:02:32.780Z,592
2016-02-09T13:03:32.768Z,540
2016-02-09T13:04:32.755Z,576
2016-02-09T13:05:32.757Z,552
2016-02-09T13:06:32.745Z,532
2016-02-09T13:07:32.748Z,512
2016-02-09T13:08:32.750Z,460
2016-02-09T13:09:32.737Z,444
2016-02-09T13:10:32.740Z,508
2016-02-09T13:11:32.758Z,576
2016-02-09T13:12:32.745Z,688
2016-02-09T13:13:32.748Z,724
2016-02-09T13:14:32.735Z,760
2016-02-09T13:15:32.753Z,704
2016-02-09T13:16:32.756Z,648
2016-02-09T13:17:32.728Z,572
2016-02-09T13:18:32.715Z,556
2016-02-09T13:19:32.733Z,576
2016-02-09T13:20:32.749Z,628
2016-02-09T13:21:32.736Z,676
2016-02-09T13:22:32.738Z,692
2016-02-09T13:23:32.710Z,636
2016-02-09T13:24:32.712Z,584
2016-02-09T13:25:32.715Z,556
2016-02-09T13:26:32.702Z,528
2016-02-09T13:27:32.720Z,524
2016-02-09T13:28:32.708Z,512
2016-02-09T13:29:32.695Z,540
2016-02-09T13:30:32.712Z,532
2016-02-09T13:31:32.700Z,548
2016-02-09T13:32:32.703Z,576
2016-02-09T13:33:32.721Z,520
2016-02-09T13:34:32.693Z,480
2016-02-09T13:35:32.695Z,476
2016-02-09T13:36:32.746Z,444
2016-02-09T13:37:32.702Z,412
2016-02-09T13:38:32.691Z,372
2016-02-09T13:39:32.693Z,388
2016-02-09T13:40:32.665Z,412
2016-02-09T13:41:32.683Z,396
2016-02-09T13:42:32.686Z,404
2016-02-09T13:43:32.673Z,436
2016-02-09T13:44:32.676Z,484
2016-02-09T13:45:32.694Z,516
2016-02-09T13:46:32.681Z,544
2016-02-09T13:47:32.667Z,536
2016-02-09T13:48:32.690Z,504
2016-02-09T13:49:32.662Z,460
2016-02-09T13:50:32.664Z,444
2016-02-09T13:51:32.667Z,456
2016-02-09T13:52:32.654Z,464
2016-02-09T13:53:32.656Z,440
2016-02-09T13:54:32.675Z,512
2016-02-09T13:55:32.646Z,568
2016-02-09T13:56:32.649Z,556
2016-02-09T13:57:32.651Z,612
2016-02-09T13:58:32.639Z,584
2016-02-09T13:59:32.641Z,588
2016-02-09T14:00:32.645Z,592
2016-02-09T14:01:32.648Z,648
2016-02-09T14:02:32.619Z,708
2016-02-09T14:03:32.654Z,764
2016-02-09T14:04:32.626Z,844
2016-02-09T14:05:32.628Z,936
2016-02-09T14:06:32.647Z,1036
2016-02-09T14:07:32.649Z,1072